ADDS METAR Data INFO
IDs: Format: Raw Decoded Include TAF

Data at: 0708 UTC 19 Oct 2017

KMNN 190653Z AUTO 18007KT 10SM CLR 08/04 A3018 RMK AO2 SLP222 T00780044
KMNN 190553Z AUTO 18005KT 10SM CLR 08/04 A3019 RMK AO2 SLP224 T00780044 10139 20078 53002
KMNN 190453Z AUTO 21006KT 10SM CLR 11/05 A3019 RMK AO2 SLP222 T01060050 402060050
KMNN 190353Z AUTO 19007KT 10SM CLR 10/04 A3018 RMK AO2 SLP223 T01000044
KMNN 190253Z AUTO 18007KT 10SM CLR 11/04 A3018 RMK AO2 SLP223 T01060044 56002
KMNN 190153Z AUTO 17005KT 10SM CLR 11/04 A3018 RMK AO2 SLP225 T01110039
KMNN 190053Z AUTO 17007KT 10SM CLR 13/04 A3019 RMK AO2 SLP225 T01330039
KMNN 182353Z AUTO 17007KT 10SM CLR 14/04 A3019 RMK AO2 SLP228 T01390044 10206 20139 56004
KMNN 182253Z AUTO 17006KT 5SM HZ CLR 16/04 A3019 RMK AO2 SLP227 T01560044
KMNN 182153Z AUTO 19009KT 10SM CLR 19/04 A3019 RMK AO2 SLP225 T01890039
KMNN 182053Z AUTO 20013KT 10SM CLR 20/03 A3020 RMK AO2 SLP229 T02000033 56021
KMNN 181953Z AUTO 19011KT 10SM CLR 20/03 A3022 RMK AO2 SLP234 T02000033
KMNN 181853Z AUTO 19013G20KT 10SM CLR 20/03 A3023 RMK AO2 SLP239 T02000033
KMNN 181753Z AUTO 18010KT 10SM CLR 19/04 A3026 RMK AO2 SLP250 T01940044 10194 20050 58021
KMNN 181653Z AUTO 18012KT 10SM CLR 18/05 A3030 RMK AO2 SLP262 T01830050
KMNN 181553Z AUTO 21010KT 10SM CLR 17/06 A3031 RMK AO2 SLP267 T01670056
KMNN 181453Z AUTO 20007KT 10SM CLR 14/06 A3033 RMK AO2 SLP272 T01440061 51006
KMNN 181353Z AUTO 17006KT 10SM CLR 11/06 A3033 RMK AO2 SLP273 T01060061
KMNN 181253Z AUTO 18006KT 10SM CLR 08/04 A3032 RMK AO2 SLP272 T00780044
KMNN 181153Z AUTO 17003KT 9SM CLR 05/03 A3031 RMK AO2 SLP268 T00500033 10078 20050 53008
KMNN 181053Z AUTO 19004KT 10SM CLR 05/03 A3030 RMK AO2 SLP265 T00500033
KMNN 180953Z AUTO 18005KT 10SM CLR 06/03 A3029 RMK AO2 SLP260 T00560033
KMNN 180853Z AUTO 18006KT 10SM CLR 06/03 A3029 RMK AO2 SLP258 T00610033 53001
KMNN 180753Z AUTO 18005KT 10SM CLR 06/03 A3028 RMK AO2 SLP257 T00610033
KMNN 180653Z AUTO 18007KT 10SM CLR 07/03 A3028 RMK AO2 SLP255 T00670033
KMNN 180553Z AUTO 17004KT 10SM CLR 07/03 A3028 RMK AO2 SLP256 T00720028 10133 20067 53003
KMNN 180453Z AUTO 19005KT 10SM CLR 07/03 A3027 RMK AO2 SLP254 T00720028 401890028
KMNN 180353Z AUTO 21007KT 10SM CLR 09/03 A3028 RMK AO2 SLP255 T00940033
KMNN 180253Z AUTO 22005KT 10SM CLR 11/03 A3027 RMK AO2 SLP254 T01060028 53011
KMNN 180153Z AUTO 21007KT 10SM CLR 12/03 A3026 RMK AO2 SLP249 T01170028
KMNN 180053Z AUTO 21007KT 10SM CLR 12/03 A3025 RMK AO2 SLP248 T01170028
KMNN 172353Z AUTO 21007KT 10SM CLR 13/03 A3024 RMK AO2 SLP244 T01330033 10189 20133 55001
KMNN 172253Z AUTO 21009KT 10SM CLR 15/03 A3023 RMK AO2 SLP242 T01500033
KMNN 172153Z AUTO 22009KT 10SM CLR 17/03 A3023 RMK AO2 SLP241 T01720028
KMNN 172053Z AUTO 23010KT 10SM CLR 18/03 A3024 RMK AO2 SLP243 T01830028 56015
KMNN 171953Z AUTO 23011G16KT 10SM CLR 18/02 A3025 RMK AO2 SLP247 T01830022